createdAt,value
2018-05-07T00:00:41.697Z,64.50
2018-05-07T00:03:09.617Z,63.50
2018-05-07T00:05:37.938Z,63.80
2018-05-07T00:08:06.298Z,63.60
2018-05-07T00:10:34.138Z,64.10
2018-05-07T00:13:02.297Z,63.80
2018-05-07T00:15:30.457Z,64.20
2018-05-07T00:17:58.576Z,64.10
2018-05-07T00:20:26.716Z,63.00
2018-05-07T00:22:54.616Z,62.90
2018-05-07T00:25:22.616Z,64.00
2018-05-07T00:27:51.197Z,64.00
2018-05-07T00:30:19.736Z,62.80
2018-05-07T00:32:47.656Z,62.80
2018-05-07T00:35:15.616Z,63.80
2018-05-07T00:37:43.576Z,63.50
2018-05-07T00:40:11.796Z,63.60
2018-05-07T00:42:39.636Z,63.70
2018-05-07T00:45:07.676Z,64.80
2018-05-07T00:47:35.497Z,63.60
2018-05-07T00:50:03.358Z,65.10
2018-05-07T00:52:31.356Z,66.20
2018-05-07T00:55:11.306Z,65.60
2018-05-07T00:57:39.297Z,65.50
2018-05-07T01:00:06.977Z,65.60
2018-05-07T01:02:34.786Z,65.40
2018-05-07T01:05:02.942Z,64.50
2018-05-07T01:07:30.923Z,64.10
2018-05-07T01:09:58.945Z,64.20
2018-05-07T01:12:27.024Z,64.30
2018-05-07T01:14:54.943Z,64.20
2018-05-07T01:17:23.287Z,64.00
2018-05-07T01:19:52.163Z,63.60
2018-05-07T01:22:20.703Z,64.40
2018-05-07T01:24:48.665Z,64.40
2018-05-07T01:27:16.702Z,65.20
2018-05-07T01:29:44.744Z,65.60
2018-05-07T01:32:12.643Z,65.50
2018-05-07T01:34:40.542Z,65.40
2018-05-07T01:37:08.386Z,65.50
2018-05-07T01:39:36.422Z,65.40
2018-05-07T01:42:04.703Z,65.00
2018-05-07T01:44:32.742Z,65.50
2018-05-07T01:47:00.563Z,65.70
2018-05-07T01:49:28.442Z,65.90
2018-05-07T01:51:56.423Z,66.30
2018-05-07T01:54:24.262Z,66.10
2018-05-07T01:56:52.023Z,66.30
2018-05-07T01:59:20.866Z,66.90
2018-05-07T02:01:48.744Z,66.80
2018-05-07T02:04:16.583Z,66.80
2018-05-07T02:06:44.703Z,66.90
2018-05-07T02:09:12.622Z,66.80
2018-05-07T02:11:40.583Z,66.80
2018-05-07T02:14:08.583Z,66.90
2018-05-07T02:16:36.623Z,67.80
2018-05-07T02:19:04.618Z,68.30
2018-05-07T02:21:33.857Z,68.10
2018-05-07T02:24:02.177Z,67.90
2018-05-07T02:26:30.856Z,67.50
2018-05-07T02:28:58.759Z,67.50
2018-05-07T02:31:26.840Z,67.80
2018-05-07T02:33:54.580Z,68.10
2018-05-07T02:36:22.517Z,67.90
2018-05-07T02:38:51.045Z,68.10
2018-05-07T02:41:19.197Z,68.10
2018-05-07T02:43:47.217Z,69.10
2018-05-07T02:46:15.056Z,70.10
2018-05-07T02:48:43.017Z,69.40
2018-05-07T02:51:10.896Z,69.00
2018-05-07T02:53:38.837Z,67.90
2018-05-07T02:56:06.679Z,68.00
2018-05-07T02:58:34.577Z,68.00
2018-05-07T03:01:02.835Z,68.50
2018-05-07T03:03:30.976Z,68.50
2018-05-07T03:05:58.796Z,68.90
2018-05-07T03:08:26.816Z,68.50
2018-05-07T03:10:54.596Z,68.80
2018-05-07T03:13:22.428Z,68.80
2018-05-07T03:15:50.496Z,68.90
2018-05-07T03:18:18.378Z,69.10
2018-05-07T03:20:46.236Z,69.30
2018-05-07T03:23:14.256Z,69.50
2018-05-07T03:25:42.056Z,70.20
2018-05-07T03:28:10.056Z,70.20
2018-05-07T03:30:37.927Z,72.00
2018-05-07T03:33:06.456Z,72.50
2018-05-07T03:35:34.620Z,73.30
2018-05-07T03:38:02.815Z,73.10
2018-05-07T03:40:30.878Z,73.00
2018-05-07T03:42:58.757Z,73.40
2018-05-07T03:45:26.940Z,75.20
2018-05-07T03:47:54.856Z,74.80
2018-05-07T03:50:22.887Z,74.10
2018-05-07T03:52:50.696Z,73.90
2018-05-07T03:55:18.676Z,74.20
2018-05-07T03:57:46.616Z,74.10
2018-05-07T04:00:14.497Z,73.20
2018-05-07T04:02:42.396Z,72.70
2018-05-07T04:05:11.176Z,72.20
2018-05-07T04:07:39.156Z,72.20
2018-05-07T04:10:07.076Z,72.10
2018-05-07T04:12:36.376Z,72.30
2018-05-07T04:15:04.216Z,72.00
2018-05-07T04:17:44.457Z,71.70
2018-05-07T04:20:24.198Z,71.80
2018-05-07T04:23:03.796Z,71.60
2018-05-07T04:25:32.096Z,71.20
2018-05-07T04:28:00.076Z,71.10
2018-05-07T04:30:28.959Z,71.00
2018-05-07T04:32:57.496Z,71.30
2018-05-07T04:35:25.558Z,71.30
2018-05-07T04:37:53.458Z,71.10
2018-05-07T04:40:21.258Z,68.20
2018-05-07T04:42:49.178Z,66.00
2018-05-07T04:45:17.278Z,62.80
2018-05-07T04:47:45.218Z,60.30
2018-05-07T04:50:13.157Z,57.70
2018-05-07T04:52:42.138Z,52.50
2018-05-07T04:55:10.433Z,52.50
2018-05-07T04:57:38.398Z,51.60
2018-05-07T05:00:06.298Z,50.20
2018-05-07T05:02:34.778Z,50.60
2018-05-07T05:05:02.899Z,49.10
2018-05-07T05:07:30.616Z,49.90
2018-05-07T05:09:58.937Z,50.50
2018-05-07T05:12:26.898Z,48.70
2018-05-07T05:14:55.658Z,46.00
2018-05-07T05:17:24.077Z,46.00
2018-05-07T05:19:52.557Z,48.10
2018-05-07T05:22:20.737Z,47.70
2018-05-07T05:24:48.517Z,47.70
2018-05-07T05:27:16.612Z,49.60
2018-05-07T05:29:44.517Z,51.00
2018-05-07T05:32:12.478Z,50.80
2018-05-07T05:34:40.517Z,51.70
2018-05-07T05:37:08.357Z,49.70
2018-05-07T05:39:36.338Z,49.60
2018-05-07T05:42:04.383Z,51.30
2018-05-07T05:44:32.637Z,51.30
2018-05-07T05:47:00.601Z,51.00
2018-05-07T05:49:28.641Z,50.90
2018-05-07T05:51:56.697Z,51.10
2018-05-07T05:54:24.655Z,51.40
2018-05-07T05:56:52.575Z,51.20
2018-05-07T05:59:20.915Z,51.90
2018-05-07T06:01:49.641Z,52.20
2018-05-07T06:04:18.140Z,52.20
2018-05-07T06:06:46.118Z,51.90
2018-05-07T06:09:14.337Z,51.40
2018-05-07T06:11:42.577Z,50.90
2018-05-07T06:14:10.379Z,51.80
2018-05-07T06:16:38.379Z,51.30
2018-05-07T06:19:06.321Z,50.80
2018-05-07T06:21:34.244Z,50.40
2018-05-07T06:24:03.737Z,51.40
2018-05-07T06:26:31.403Z,52.50
2018-05-07T06:28:59.058Z,52.20
2018-05-07T06:31:26.881Z,51.50
2018-05-07T06:33:54.509Z,51.10
2018-05-07T06:36:22.136Z,50.40
2018-05-07T06:38:50.137Z,52.00
2018-05-07T06:41:18.196Z,50.80
2018-05-07T06:43:46.097Z,51.90
2018-05-07T06:46:14.977Z,49.60
2018-05-07T06:48:43.019Z,49.60
2018-05-07T06:51:11.358Z,50.90
2018-05-07T06:53:39.359Z,51.20
2018-05-07T06:56:07.457Z,50.80
2018-05-07T06:58:35.376Z,51.60
2018-05-07T07:01:03.362Z,51.80
2018-05-07T07:03:31.303Z,50.70
2018-05-07T07:05:59.202Z,49.80
2018-05-07T07:08:27.681Z,50.30
2018-05-07T07:10:55.583Z,49.30
2018-05-07T07:13:24.379Z,48.90
2018-05-07T07:15:52.421Z,47.60
2018-05-07T07:18:20.577Z,48.00
2018-05-07T07:20:48.397Z,45.90
2018-05-07T07:23:16.778Z,46.90
2018-05-07T07:25:44.738Z,45.60
2018-05-07T07:28:12.556Z,46.00
2018-05-07T07:30:40.439Z,45.40
2018-05-07T07:33:08.269Z,46.30
2018-05-07T07:35:36.216Z,48.50
2018-05-07T07:38:05.017Z,45.50
2018-05-07T07:40:33.596Z,45.50
2018-05-07T07:43:01.417Z,44.70
2018-05-07T07:45:29.418Z,42.30
2018-05-07T07:47:57.257Z,40.90
2018-05-07T07:50:25.097Z,43.20
2018-05-07T07:52:53.338Z,43.90
2018-05-07T07:55:21.255Z,42.80
2018-05-07T07:57:50.295Z,40.60
2018-05-07T08:00:18.029Z,40.60
2018-05-07T08:02:45.916Z,40.90
2018-05-07T08:05:13.795Z,42.70
2018-05-07T08:07:41.795Z,42.80
2018-05-07T08:10:09.536Z,42.30
2018-05-07T08:12:38.138Z,44.50
2018-05-07T08:15:05.957Z,44.60
2018-05-07T08:17:34.696Z,44.40
2018-05-07T08:20:02.684Z,44.40
2018-05-07T08:22:30.583Z,42.90
2018-05-07T08:24:59.416Z,41.70
2018-05-07T08:27:27.576Z,41.00
2018-05-07T08:29:56.136Z,41.60
2018-05-07T08:32:24.216Z,41.70
2018-05-07T08:34:52.184Z,42.40
2018-05-07T08:37:19.976Z,43.30
2018-05-07T08:39:47.976Z,46.40
2018-05-07T08:42:15.900Z,43.90
2018-05-07T08:44:44.376Z,43.70
2018-05-07T08:47:12.357Z,42.00
2018-05-07T08:49:40.216Z,43.10
2018-05-07T08:52:08.437Z,42.60
2018-05-07T08:54:36.697Z,43.30
2018-05-07T08:57:04.736Z,43.80
2018-05-07T08:59:32.980Z,41.70
2018-05-07T09:02:00.925Z,41.90
2018-05-07T09:04:29.156Z,42.70
2018-05-07T09:06:57.456Z,44.50
2018-05-07T09:09:25.466Z,45.70
2018-05-07T09:11:53.496Z,44.00
2018-05-07T09:14:21.356Z,44.00
2018-05-07T09:16:49.996Z,43.60
2018-05-07T09:19:17.827Z,44.00
2018-05-07T09:21:46.117Z,45.30
2018-05-07T09:24:14.098Z,45.20
2018-05-07T09:26:42.136Z,48.00
2018-05-07T09:29:10.177Z,45.90
2018-05-07T09:31:38.272Z,46.80
2018-05-07T09:34:06.061Z,45.40
2018-05-07T09:36:34.757Z,45.80
2018-05-07T09:39:02.735Z,45.80
2018-05-07T09:41:30.557Z,44.80
2018-05-07T09:43:58.577Z,45.60
2018-05-07T09:46:27.176Z,46.00
2018-05-07T09:48:55.008Z,45.80
2018-05-07T09:51:22.936Z,44.10
2018-05-07T09:53:50.776Z,44.40
2018-05-07T09:56:19.196Z,44.30
2018-05-07T09:59:03.656Z,48.10
2018-05-07T10:01:31.639Z,44.30
2018-05-07T10:06:32.239Z,44.90
2018-05-07T10:09:00.386Z,44.80
2018-05-07T10:11:28.579Z,45.00
2018-05-07T10:13:56.380Z,46.60
2018-05-07T10:16:24.419Z,45.80
2018-05-07T10:18:52.200Z,44.70
2018-05-07T10:21:20.921Z,44.50
2018-05-07T10:23:48.978Z,44.00
2018-05-07T10:26:17.219Z,45.20
2018-05-07T10:28:45.060Z,45.20
2018-05-07T10:31:13.178Z,44.00
2018-05-07T10:33:41.139Z,44.40
2018-05-07T10:36:09.439Z,47.60
2018-05-07T10:38:37.659Z,48.90
2018-05-07T10:41:05.600Z,47.10
2018-05-07T10:43:33.659Z,44.10
2018-05-07T10:46:02.480Z,45.60
2018-05-07T10:48:31.259Z,46.10
2018-05-07T10:50:59.421Z,46.10
2018-05-07T10:53:28.855Z,47.40
2018-05-07T10:55:56.695Z,45.10
2018-05-07T10:58:26.197Z,47.40
2018-05-07T11:00:54.834Z,47.30
2018-05-07T11:03:22.757Z,47.40
2018-05-07T11:05:51.154Z,49.20
2018-05-07T11:08:19.415Z,47.90
2018-05-07T11:10:47.394Z,50.20
2018-05-07T11:13:15.357Z,46.30
2018-05-07T11:15:43.236Z,50.90
2018-05-07T11:18:11.134Z,47.40
2018-05-07T11:20:38.995Z,49.20
2018-05-07T11:23:07.095Z,47.20
2018-05-07T11:25:35.262Z,47.30
2018-05-07T11:28:03.174Z,46.70
2018-05-07T11:30:31.015Z,46.80
2018-05-07T11:32:59.057Z,45.90
2018-05-07T11:35:27.334Z,47.20
2018-05-07T11:37:55.415Z,46.20
2018-05-07T11:40:23.375Z,50.60
2018-05-07T11:42:51.214Z,46.60
2018-05-07T11:45:19.277Z,47.50
2018-05-07T11:47:47.297Z,46.30
2018-05-07T11:50:15.156Z,45.90
2018-05-07T11:52:43.076Z,47.20
2018-05-07T11:55:11.016Z,50.50
2018-05-07T11:57:39.336Z,49.20
2018-05-07T12:00:07.316Z,49.80
2018-05-07T12:02:35.185Z,50.60
2018-05-07T12:05:02.899Z,49.70
2018-05-07T12:07:31.240Z,49.10
2018-05-07T12:09:59.120Z,50.80
2018-05-07T12:12:26.984Z,49.40
2018-05-07T12:14:54.882Z,51.00
2018-05-07T12:17:22.760Z,50.80
2018-05-07T12:19:50.941Z,52.40
2018-05-07T12:22:18.902Z,51.40
2018-05-07T12:24:46.941Z,48.70
2018-05-07T12:27:14.960Z,50.50
2018-05-07T12:29:42.940Z,46.70
2018-05-07T12:32:10.964Z,48.50
2018-05-07T12:34:38.942Z,47.40
2018-05-07T12:37:06.840Z,47.50
2018-05-07T12:39:34.683Z,49.00
2018-05-07T12:42:02.581Z,47.00
2018-05-07T12:44:30.522Z,46.70
2018-05-07T12:46:58.461Z,47.70
2018-05-07T12:49:26.624Z,51.60
2018-05-07T12:51:54.539Z,50.50
2018-05-07T12:54:22.359Z,50.80
2018-05-07T12:56:50.480Z,47.00
2018-05-07T12:59:19.203Z,48.70
2018-05-07T13:01:47.196Z,48.70
2018-05-07T13:04:15.157Z,47.40
2018-05-07T13:06:43.256Z,46.80
2018-05-07T13:09:11.256Z,46.70
2018-05-07T13:11:39.138Z,49.20
2018-05-07T13:14:06.876Z,48.00
2018-05-07T13:16:35.196Z,49.50
2018-05-07T13:19:03.240Z,49.90
2018-05-07T13:21:31.557Z,48.40
2018-05-07T13:23:59.684Z,48.30
2018-05-07T13:26:30.676Z,48.40
2018-05-07T13:28:58.616Z,47.30
2018-05-07T13:31:26.596Z,48.20
2018-05-07T13:33:54.456Z,49.30
2018-05-07T13:36:22.936Z,48.20
2018-05-07T13:38:50.759Z,48.70
2018-05-07T13:41:18.776Z,47.40
2018-05-07T13:43:46.815Z,48.40
2018-05-07T13:46:15.675Z,47.60
2018-05-07T13:48:44.416Z,47.80
2018-05-07T13:51:12.485Z,47.80
2018-05-07T13:53:40.636Z,47.10
2018-05-07T13:56:09.500Z,49.80
2018-05-07T13:58:38.176Z,52.40
2018-05-07T14:01:06.084Z,52.30
2018-05-07T14:03:34.256Z,50.70
2018-05-07T14:06:02.655Z,50.00
2018-05-07T14:08:30.545Z,49.60
2018-05-07T14:10:58.777Z,48.60
2018-05-07T14:13:26.817Z,50.10
2018-05-07T14:15:54.878Z,51.00
2018-05-07T14:18:22.917Z,50.50
2018-05-07T14:20:51.198Z,48.80
2018-05-07T14:23:19.258Z,48.10
2018-05-07T14:25:47.120Z,49.40
2018-05-07T14:28:14.984Z,49.00
2018-05-07T14:30:43.077Z,49.50
2018-05-07T14:33:11.400Z,49.50
2018-05-07T14:35:39.240Z,49.10
2018-05-07T14:38:07.639Z,50.30
2018-05-07T14:40:35.419Z,49.50
2018-05-07T14:43:03.398Z,48.20
2018-05-07T14:45:31.379Z,50.60
2018-05-07T14:47:59.578Z,48.80
2018-05-07T14:50:27.640Z,49.80
2018-05-07T14:52:56.118Z,49.50
2018-05-07T14:55:23.922Z,48.50
2018-05-07T14:57:52.218Z,49.50
2018-05-07T15:00:20.774Z,49.50
2018-05-07T15:02:48.737Z,50.60
2018-05-07T15:05:17.099Z,49.40
2018-05-07T15:07:45.839Z,49.50
2018-05-07T15:10:13.686Z,49.50
2018-05-07T15:12:41.539Z,50.40
2018-05-07T15:15:09.338Z,50.10
2018-05-07T15:17:37.435Z,50.10
2018-05-07T15:20:05.255Z,50.80
2018-05-07T15:22:33.215Z,51.20
2018-05-07T15:25:01.436Z,49.50
2018-05-07T15:27:29.457Z,49.40
2018-05-07T15:29:57.336Z,49.50
2018-05-07T15:32:25.176Z,49.10
2018-05-07T15:34:53.236Z,49.20
2018-05-07T15:37:21.116Z,50.80
2018-05-07T15:39:49.315Z,50.30
2018-05-07T15:42:17.220Z,51.20
2018-05-07T15:44:45.236Z,49.30
2018-05-07T15:49:45.415Z,50.20
2018-05-07T15:52:13.441Z,51.20
2018-05-07T15:54:42.755Z,50.60
2018-05-07T15:57:10.505Z,50.00
2018-05-07T15:59:38.775Z,51.20
2018-05-07T16:02:06.618Z,51.00
2018-05-07T16:04:34.835Z,49.60
2018-05-07T16:07:02.835Z,49.70
2018-05-07T16:09:30.637Z,50.50
2018-05-07T16:11:58.675Z,50.70
2018-05-07T16:14:26.495Z,50.40
2018-05-07T16:16:55.328Z,51.30
2018-05-07T16:19:25.071Z,51.30
2018-05-07T16:21:53.825Z,50.00
2018-05-07T16:24:21.918Z,50.00
2018-05-07T16:26:50.318Z,50.20
2018-05-07T16:29:18.618Z,50.80
2018-05-07T16:31:46.837Z,51.30
2018-05-07T16:34:15.039Z,51.60
2018-05-07T16:36:43.097Z,51.30
2018-05-07T16:39:11.457Z,52.70
2018-05-07T16:41:39.320Z,51.50
2018-05-07T16:44:07.797Z,51.90
2018-05-07T16:46:35.999Z,52.30
2018-05-07T16:49:04.020Z,53.10
2018-05-07T16:51:32.057Z,52.70
2018-05-07T16:53:59.937Z,53.30
2018-05-07T16:56:27.819Z,54.20
2018-05-07T16:58:55.657Z,53.70
2018-05-07T17:01:23.540Z,53.70
2018-05-07T17:03:51.581Z,54.00
2018-05-07T17:06:19.743Z,54.30
2018-05-07T17:08:48.600Z,55.50
2018-05-07T17:11:17.301Z,55.10
2018-05-07T17:13:45.283Z,55.20
2018-05-07T17:16:13.122Z,55.50
2018-05-07T17:18:41.041Z,55.30
2018-05-07T17:21:08.923Z,55.90
2018-05-07T17:23:36.881Z,55.60
2018-05-07T17:26:06.101Z,56.00
2018-05-07T17:28:34.241Z,56.00
2018-05-07T17:31:02.122Z,56.60
2018-05-07T17:33:30.470Z,56.70
2018-05-07T17:35:58.300Z,56.60
2018-05-07T17:38:26.224Z,56.90
2018-05-07T17:40:53.922Z,57.00
2018-05-07T17:43:21.722Z,57.30
2018-05-07T17:46:01.303Z,57.60
2018-05-07T17:48:40.887Z,57.40
2018-05-07T17:51:11.537Z,57.50
2018-05-07T17:53:39.377Z,58.20
2018-05-07T17:56:07.397Z,58.20
2018-05-07T17:58:35.316Z,58.60
2018-05-07T18:01:03.181Z,58.70
2018-05-07T18:03:31.520Z,59.10
2018-05-07T18:05:59.966Z,58.70
2018-05-07T18:08:27.862Z,59.00
2018-05-07T18:10:55.849Z,58.60
2018-05-07T18:13:24.059Z,58.40
2018-05-07T18:15:51.937Z,58.90
2018-05-07T18:18:20.517Z,58.70
2018-05-07T18:20:48.357Z,58.60
2018-05-07T18:23:16.981Z,58.90
2018-05-07T18:25:45.176Z,59.00
2018-05-07T18:28:13.297Z,58.90
2018-05-07T18:30:41.237Z,58.70
2018-05-07T18:33:09.004Z,58.90
2018-05-07T18:35:36.895Z,59.10
2018-05-07T18:38:04.551Z,59.00
2018-05-07T18:40:32.390Z,59.30
2018-05-07T18:43:00.980Z,59.60
2018-05-07T18:45:28.625Z,58.90
2018-05-07T18:47:56.301Z,59.00
2018-05-07T18:50:24.118Z,59.30
2018-05-07T18:52:51.828Z,59.70
2018-05-07T18:55:19.661Z,59.80
2018-05-07T18:57:47.683Z,59.90
2018-05-07T19:00:16.498Z,59.80
2018-05-07T19:02:44.190Z,60.10
2018-05-07T19:05:11.908Z,60.40
2018-05-07T19:07:40.252Z,60.40
2018-05-07T19:10:07.940Z,60.30
2018-05-07T19:12:35.673Z,60.40
2018-05-07T19:15:03.980Z,60.30
2018-05-07T19:17:31.619Z,60.50
2018-05-07T19:20:00.271Z,61.40
2018-05-07T19:22:27.917Z,61.40
2018-05-07T19:24:55.807Z,60.90
2018-05-07T19:27:23.446Z,61.20
2018-05-07T19:29:51.669Z,61.10
2018-05-07T19:32:19.395Z,61.20
2018-05-07T19:34:47.092Z,61.00
2018-05-07T19:37:14.957Z,60.70
2018-05-07T19:39:42.641Z,60.90
2018-05-07T19:42:10.488Z,61.20
2018-05-07T19:44:38.305Z,61.00
2018-05-07T19:47:06.010Z,60.80
2018-05-07T19:49:33.794Z,60.90
2018-05-07T19:52:01.825Z,61.20
2018-05-07T19:54:29.695Z,61.20
2018-05-07T19:56:57.615Z,62.00
2018-05-07T19:59:25.416Z,61.80
2018-05-07T20:01:53.504Z,62.10
2018-05-07T20:04:22.226Z,63.00
2018-05-07T20:06:50.000Z,62.10
2018-05-07T20:09:17.855Z,62.10
2018-05-07T20:11:46.135Z,62.50
2018-05-07T20:14:14.238Z,63.10
2018-05-07T20:16:43.295Z,63.20
2018-05-07T20:19:11.297Z,63.10
2018-05-07T20:21:39.135Z,63.60
2018-05-07T20:24:07.107Z,63.20
2018-05-07T20:26:35.703Z,63.80
2018-05-07T20:29:03.541Z,63.80
2018-05-07T20:31:31.377Z,64.30
2018-05-07T20:34:01.471Z,64.90
2018-05-07T20:36:29.262Z,64.90
2018-05-07T20:41:29.478Z,64.90
2018-05-07T20:43:58.374Z,65.20
2018-05-07T20:46:26.236Z,65.20
2018-05-07T20:48:54.301Z,65.40
2018-05-07T20:51:22.419Z,65.20
2018-05-07T20:53:50.336Z,64.60
2018-05-07T20:56:18.237Z,64.90
2018-05-07T20:58:46.298Z,65.20
2018-05-07T21:01:14.497Z,65.30
2018-05-07T21:03:43.044Z,64.60
2018-05-07T21:06:11.698Z,65.20
2018-05-07T21:11:11.500Z,64.80
2018-05-07T21:13:39.361Z,64.50
2018-05-07T21:18:39.320Z,64.70
2018-05-07T21:21:07.303Z,63.80
2018-05-07T21:23:35.578Z,63.90
2018-05-07T21:26:03.459Z,64.70
2018-05-07T21:28:31.698Z,65.00
2018-05-07T21:31:01.359Z,64.70
2018-05-07T21:33:29.582Z,64.60
2018-05-07T21:35:57.539Z,64.60
2018-05-07T21:38:25.499Z,66.10
2018-05-07T21:40:53.738Z,67.30
2018-05-07T21:43:22.898Z,61.10
2018-05-07T21:45:50.906Z,61.10
2018-05-07T21:48:21.124Z,58.40
2018-05-07T21:53:21.218Z,65.50
2018-05-07T21:55:49.257Z,60.50
2018-05-07T21:58:17.237Z,63.80
2018-05-07T22:00:45.134Z,67.80
2018-05-07T22:03:13.087Z,68.50
2018-05-07T22:05:41.418Z,68.00
2018-05-07T22:08:10.124Z,69.50
2018-05-07T22:10:38.095Z,69.50
2018-05-07T22:13:06.375Z,68.80
2018-05-07T22:15:35.101Z,71.00
2018-05-07T22:18:03.175Z,70.90
2018-05-07T22:20:31.136Z,68.00
2018-05-07T22:22:59.080Z,67.70
2018-05-07T22:25:26.943Z,67.60
2018-05-07T22:27:55.095Z,67.30
2018-05-07T22:30:23.217Z,67.00
2018-05-07T22:32:51.416Z,67.60
2018-05-07T22:35:20.415Z,67.40
2018-05-07T22:37:48.475Z,67.40
2018-05-07T22:40:17.494Z,67.60
2018-05-07T22:42:47.574Z,67.60
2018-05-07T22:45:15.439Z,67.60
2018-05-07T22:47:43.394Z,67.80
2018-05-07T22:50:11.415Z,66.80
2018-05-07T22:52:39.494Z,60.90
2018-05-07T22:55:08.294Z,60.60
2018-05-07T22:57:36.336Z,58.60
2018-05-07T23:00:04.074Z,57.20
2018-05-07T23:02:32.075Z,58.00
2018-05-07T23:04:59.998Z,58.40
2018-05-07T23:07:27.914Z,67.10
2018-05-07T23:09:56.135Z,66.90
2018-05-07T23:12:24.537Z,66.30
2018-05-07T23:14:52.474Z,67.00
2018-05-07T23:17:20.534Z,67.00
2018-05-07T23:19:48.593Z,66.30
2018-05-07T23:22:16.914Z,63.30
2018-05-07T23:24:44.913Z,64.40
2018-05-07T23:27:13.373Z,65.30
2018-05-07T23:29:41.294Z,63.20
2018-05-07T23:32:09.133Z,61.60
2018-05-07T23:34:37.334Z,61.90
2018-05-07T23:37:05.435Z,61.20
2018-05-07T23:39:33.274Z,61.20
2018-05-07T23:42:01.234Z,62.00
2018-05-07T23:44:29.334Z,61.90
2018-05-07T23:46:57.413Z,61.20
2018-05-07T23:49:25.335Z,62.40
2018-05-07T23:51:53.253Z,65.60
2018-05-07T23:54:21.215Z,65.80
2018-05-07T23:56:49.114Z,62.50
2018-05-07T23:59:17.023Z,61.10
